Adams Gardens, Texas
Current Conditions -  °F | °C
As of 11:52 PM on Wednesday 22 Oct 2014 (Local Time) from KHRL Reporting Station
Clear Clear  
Wind Chill: 71°   Ceiling: Unl
Heat Index: 71°   Visibility: 10mi
Dew Point: 68°   Wind: 6mph
Humidity: 90%   Direction: 60°ENE
Pressure: 30.03"   Gusts: NA
Location:  26.2089°N, 97.6849°W
Report Text: KHRL 230452Z 06005KT 10SM CLR 22/20 A3003 RMK AO2 SLP168 T02170200
Loading
Personal Weather Stations






























Interactive Weather Map New forecast layout! Learn more

10-Day Weather Forecast

Advertisements
Track Severe Weather on mobile